createdAt,value
2019-05-10T00:02:15.517Z,90.61
2019-05-10T00:05:00.701Z,90.01
2019-05-10T00:07:45.747Z,91.09
2019-05-10T00:10:13.065Z,91.02
2019-05-10T00:12:53.929Z,91.25
2019-05-10T00:15:22.443Z,90.87
2019-05-10T00:17:51.027Z,90.95
2019-05-10T00:20:17.841Z,91.00
2019-05-10T00:22:44.750Z,90.77
2019-05-10T00:25:11.626Z,90.93
2019-05-10T00:27:38.460Z,90.80
2019-05-10T00:30:06.106Z,90.32
2019-05-10T00:32:32.962Z,90.50
2019-05-10T00:34:59.909Z,90.53
2019-05-10T00:37:27.801Z,90.46
2019-05-10T00:39:54.484Z,90.67
2019-05-10T00:42:21.245Z,90.69
2019-05-10T00:44:48.143Z,90.86
2019-05-10T00:47:14.970Z,90.68
2019-05-10T00:49:41.834Z,90.78
2019-05-10T00:52:08.685Z,90.78
2019-05-10T00:54:35.586Z,90.70
2019-05-10T00:57:02.646Z,90.95
2019-05-10T00:59:29.475Z,91.11
2019-05-10T01:01:56.390Z,90.88
2019-05-10T01:04:24.194Z,90.57
2019-05-10T01:06:51.071Z,90.62
2019-05-10T01:09:17.955Z,90.47
2019-05-10T01:11:44.665Z,90.74
2019-05-10T01:14:11.354Z,90.88
2019-05-10T01:16:38.322Z,91.47
2019-05-10T01:19:05.186Z,91.29
2019-05-10T01:21:33.245Z,90.94
2019-05-10T01:23:59.937Z,91.19
2019-05-10T01:26:26.767Z,91.18
2019-05-10T01:28:53.427Z,90.74
2019-05-10T01:31:20.688Z,90.83
2019-05-10T01:33:47.370Z,91.15
2019-05-10T01:36:14.067Z,91.10
2019-05-10T01:38:40.745Z,91.33
2019-05-10T01:41:07.861Z,91.08
2019-05-10T01:43:34.649Z,91.10
2019-05-10T01:46:01.427Z,91.37
2019-05-10T01:48:28.165Z,91.52
2019-05-10T01:50:54.989Z,91.41
2019-05-10T01:53:22.725Z,91.44
2019-05-10T01:55:52.515Z,91.32
2019-05-10T01:58:18.291Z,91.26
2019-05-10T02:00:45.161Z,91.49
2019-05-10T02:03:12.944Z,91.19
2019-05-10T02:05:39.685Z,91.19
2019-05-10T02:08:06.392Z,91.14
2019-05-10T02:10:33.209Z,91.39
2019-05-10T02:13:00.042Z,91.63
2019-05-10T02:15:26.714Z,91.71
2019-05-10T02:17:53.404Z,91.62
2019-05-10T02:20:20.201Z,91.51
2019-05-10T02:22:46.968Z,91.56
2019-05-10T02:25:13.799Z,91.44
2019-05-10T02:27:40.481Z,91.21
2019-05-10T02:30:07.772Z,91.25
2019-05-10T02:32:34.509Z,91.36
2019-05-10T02:35:01.365Z,91.44
2019-05-10T02:37:28.014Z,91.39
2019-05-10T02:39:54.980Z,91.73
2019-05-10T02:42:22.941Z,91.77
2019-05-10T02:44:49.637Z,91.80
2019-05-10T02:47:16.397Z,91.65
2019-05-10T02:49:43.126Z,91.76
2019-05-10T02:52:09.792Z,91.63
2019-05-10T02:54:36.921Z,91.71
2019-05-10T02:57:05.501Z,92.04
2019-05-10T02:59:32.440Z,91.97
2019-05-10T03:02:02.740Z,91.79
2019-05-10T03:04:33.191Z,91.92
2019-05-10T03:07:04.353Z,91.75
2019-05-10T03:09:32.437Z,92.09
2019-05-10T03:12:02.828Z,92.00
2019-05-10T03:14:33.168Z,91.84
2019-05-10T03:17:02.761Z,91.89
2019-05-10T03:19:30.792Z,91.88
2019-05-10T03:22:05.541Z,92.01
2019-05-10T03:24:32.243Z,91.74
2019-05-10T03:26:58.987Z,91.91
2019-05-10T03:29:25.753Z,92.28
2019-05-10T03:31:52.505Z,92.06
2019-05-10T03:34:19.353Z,91.78
2019-05-10T03:36:46.345Z,91.71
2019-05-10T03:39:13.112Z,91.54
2019-05-10T03:41:40.393Z,91.33
2019-05-10T03:44:07.112Z,91.60
2019-05-10T03:46:33.812Z,91.62
2019-05-10T03:49:00.490Z,91.72
2019-05-10T03:51:27.314Z,91.85
2019-05-10T03:53:53.989Z,91.53
2019-05-10T03:56:20.760Z,91.42
2019-05-10T03:58:47.497Z,91.53
2019-05-10T04:01:14.313Z,91.89
2019-05-10T04:03:41.009Z,91.87
2019-05-10T04:06:07.838Z,92.03
2019-05-10T04:08:34.907Z,91.97
2019-05-10T04:11:01.614Z,91.82
2019-05-10T04:13:28.439Z,92.03
2019-05-10T04:15:55.138Z,92.14
2019-05-10T04:18:21.896Z,92.02
2019-05-10T04:20:48.711Z,91.73
2019-05-10T04:23:15.471Z,91.87
2019-05-10T04:25:42.237Z,91.70
2019-05-10T04:28:09.070Z,91.68
2019-05-10T04:30:35.966Z,91.91
2019-05-10T04:33:02.919Z,91.58
2019-05-10T04:35:29.732Z,91.50
2019-05-10T04:37:56.436Z,91.69
2019-05-10T04:40:23.311Z,91.35
2019-05-10T04:42:50.168Z,91.11
2019-05-10T04:45:16.862Z,91.13
2019-05-10T04:47:43.549Z,90.74
2019-05-10T04:50:10.833Z,90.05
2019-05-10T04:52:37.797Z,89.70
2019-05-10T04:55:07.905Z,87.41
2019-05-10T04:57:49.230Z,81.65
2019-05-10T05:00:06.205Z,78.04
2019-05-10T05:02:32.952Z,79.23
2019-05-10T05:04:59.654Z,78.47
2019-05-10T05:07:26.465Z,80.52
2019-05-10T05:09:53.197Z,81.93
2019-05-10T05:12:19.933Z,81.83
2019-05-10T05:14:46.989Z,81.98
2019-05-10T05:17:13.727Z,80.46
2019-05-10T05:19:41.090Z,78.77
2019-05-10T05:22:07.990Z,78.54
2019-05-10T05:24:34.826Z,80.40
2019-05-10T05:27:01.662Z,80.82
2019-05-10T05:29:28.365Z,79.88
2019-05-10T05:32:00.962Z,81.26
2019-05-10T05:34:24.049Z,73.37
2019-05-10T05:36:50.802Z,77.03
2019-05-10T05:39:17.545Z,78.26
2019-05-10T05:41:49.115Z,77.68
2019-05-10T05:44:13.190Z,74.69
2019-05-10T05:46:40.158Z,77.17
2019-05-10T05:49:07.078Z,77.08
2019-05-10T05:51:33.806Z,76.31
2019-05-10T05:54:03.902Z,78.88
2019-05-10T05:56:29.310Z,79.95
2019-05-10T05:58:56.342Z,80.92
2019-05-10T06:01:28.911Z,82.19
2019-05-10T06:03:52.104Z,83.19
2019-05-10T06:06:23.453Z,83.53
2019-05-10T06:08:47.603Z,84.37
2019-05-10T06:11:14.315Z,85.63
2019-05-10T06:13:40.987Z,86.00
2019-05-10T06:16:13.225Z,85.81
2019-05-10T06:18:36.514Z,87.27
2019-05-10T06:21:03.632Z,88.13
2019-05-10T06:23:35.104Z,87.04
2019-05-10T06:25:59.081Z,84.80
2019-05-10T06:28:38.072Z,85.52
2019-05-10T06:30:54.510Z,84.73
2019-05-10T06:33:21.188Z,83.65
2019-05-10T06:35:47.943Z,83.04
2019-05-10T06:38:14.668Z,81.54
2019-05-10T06:40:47.212Z,82.92
2019-05-10T06:43:13.275Z,81.34
2019-05-10T06:45:38.844Z,82.30
2019-05-10T06:48:05.616Z,83.12
2019-05-10T06:50:32.477Z,83.84
2019-05-10T06:53:00.782Z,81.09
2019-05-10T06:55:28.014Z,80.95
2019-05-10T06:57:59.584Z,81.95
2019-05-10T07:00:23.728Z,81.53
2019-05-10T07:02:51.065Z,77.07
2019-05-10T07:05:18.962Z,77.93
2019-05-10T07:07:45.804Z,75.43
2019-05-10T07:10:18.577Z,78.78
2019-05-10T07:12:41.544Z,78.71
2019-05-10T07:15:09.154Z,78.76
2019-05-10T07:17:41.332Z,80.23
2019-05-10T07:20:06.708Z,79.33
2019-05-10T07:22:33.474Z,80.64
2019-05-10T07:25:04.107Z,79.24
2019-05-10T07:27:29.987Z,79.79
2019-05-10T07:29:56.762Z,78.43
2019-05-10T07:32:24.597Z,77.28
2019-05-10T07:34:58.925Z,79.98
2019-05-10T07:37:20.605Z,80.71
2019-05-10T07:39:47.526Z,79.98
2019-05-10T07:42:14.264Z,81.40
2019-05-10T07:44:41.513Z,82.39
2019-05-10T07:47:09.886Z,83.03
2019-05-10T07:49:36.765Z,80.86
2019-05-10T07:52:04.488Z,80.91
2019-05-10T07:54:31.359Z,79.89
2019-05-10T07:56:58.667Z,80.91
2019-05-10T07:59:30.381Z,79.48
2019-05-10T08:01:54.033Z,81.31
2019-05-10T08:04:31.592Z,81.47
2019-05-10T08:06:52.132Z,81.84
2019-05-10T08:09:19.231Z,83.19
2019-05-10T08:11:48.351Z,83.19
2019-05-10T08:14:15.817Z,81.15
2019-05-10T08:16:43.491Z,82.71
2019-05-10T08:19:10.205Z,81.30
2019-05-10T08:21:36.885Z,80.71
2019-05-10T08:24:13.066Z,80.69
2019-05-10T08:26:33.164Z,81.93
2019-05-10T08:29:02.029Z,83.18
2019-05-10T08:31:33.874Z,83.48
2019-05-10T08:33:58.947Z,85.02
2019-05-10T08:36:25.788Z,84.76
2019-05-10T08:39:05.030Z,86.35
2019-05-10T08:41:22.333Z,86.58
2019-05-10T08:43:49.582Z,87.55
2019-05-10T08:46:19.414Z,87.75
2019-05-10T08:48:50.393Z,87.68
2019-05-10T08:51:13.666Z,87.49
2019-05-10T08:53:42.142Z,86.69
2019-05-10T08:56:15.927Z,87.19
2019-05-10T08:58:37.702Z,87.81
2019-05-10T09:01:16.725Z,87.08
2019-05-10T09:03:32.974Z,87.50
2019-05-10T09:06:03.751Z,87.29
2019-05-10T09:08:31.756Z,87.28
2019-05-10T09:10:58.087Z,87.49
2019-05-10T09:13:28.689Z,87.29
2019-05-10T09:15:56.836Z,86.19
2019-05-10T09:18:23.016Z,86.12
2019-05-10T09:20:51.852Z,85.30
2019-05-10T09:23:22.548Z,83.96
2019-05-10T09:25:49.025Z,85.33
2019-05-10T09:28:17.850Z,86.38
2019-05-10T09:30:56.855Z,83.28
2019-05-10T09:33:14.658Z,82.92
2019-05-10T09:35:47.011Z,83.48
2019-05-10T09:38:12.510Z,80.32
2019-05-10T09:40:42.433Z,81.96
2019-05-10T09:43:09.577Z,81.03
2019-05-10T09:45:36.339Z,80.88
2019-05-10T09:48:03.381Z,80.83
2019-05-10T09:50:40.557Z,78.36
2019-05-10T09:52:59.964Z,78.25
2019-05-10T09:55:28.024Z,78.67
2019-05-10T09:57:54.914Z,75.68
2019-05-10T10:00:33.758Z,76.15
2019-05-10T10:03:01.870Z,73.32
2019-05-10T10:05:29.967Z,74.37
2019-05-10T10:07:57.817Z,74.77
2019-05-10T10:10:31.699Z,73.19
2019-05-10T10:12:58.333Z,73.52
2019-05-10T10:15:29.792Z,73.48
2019-05-10T10:17:58.105Z,71.91
2019-05-10T10:20:24.343Z,74.93
2019-05-10T10:22:54.460Z,71.54
2019-05-10T10:25:19.681Z,72.79
2019-05-10T10:27:48.016Z,72.74
2019-05-10T10:30:20.677Z,74.16
2019-05-10T10:32:44.563Z,75.67
2019-05-10T10:35:13.334Z,72.98
2019-05-10T10:37:40.163Z,73.53
2019-05-10T10:40:08.741Z,72.32
2019-05-10T10:42:38.046Z,74.35
2019-05-10T10:45:07.420Z,74.72
2019-05-10T10:47:34.349Z,70.38
2019-05-10T10:50:09.216Z,73.10
2019-05-10T10:52:31.941Z,70.54
2019-05-10T10:54:58.735Z,73.74
2019-05-10T10:57:27.800Z,70.52
2019-05-10T10:59:54.147Z,70.68
2019-05-10T11:02:32.853Z,70.75
2019-05-10T11:04:51.755Z,70.38
2019-05-10T11:07:18.417Z,69.74
2019-05-10T11:09:45.091Z,71.55
2019-05-10T11:12:14.807Z,73.03
2019-05-10T11:14:45.205Z,73.24
2019-05-10T11:17:11.079Z,76.49
2019-05-10T11:19:37.656Z,77.12
2019-05-10T11:22:09.730Z,79.14
2019-05-10T11:24:33.206Z,77.08
2019-05-10T11:27:01.118Z,78.32
2019-05-10T11:29:28.601Z,75.22
2019-05-10T11:32:13.572Z,75.63
2019-05-10T11:34:29.417Z,76.82
2019-05-10T11:36:53.878Z,77.48
2019-05-10T11:39:26.438Z,74.17
2019-05-10T11:41:52.956Z,68.33
2019-05-10T11:44:22.059Z,68.38
2019-05-10T11:46:50.635Z,67.35
2019-05-10T11:49:17.103Z,65.08
2019-05-10T11:51:47.953Z,62.90
2019-05-10T11:54:13.569Z,66.26
2019-05-10T11:56:41.081Z,66.01
2019-05-10T11:59:15.835Z,64.08
2019-05-10T12:01:41.478Z,66.35
2019-05-10T12:04:12.058Z,64.69
2019-05-10T12:06:34.545Z,66.87
2019-05-10T12:09:08.333Z,67.20
2019-05-10T12:14:03.686Z,66.02
2019-05-10T12:16:33.421Z,66.96
2019-05-10T12:19:10.504Z,69.36
2019-05-10T12:21:27.685Z,68.76
2019-05-10T12:23:56.332Z,70.41
2019-05-10T12:26:05.229Z,68.46
2019-05-10T12:28:52.346Z,78.72
2019-05-10T12:31:21.126Z,78.82
2019-05-10T12:33:47.640Z,81.25
2019-05-10T12:36:23.459Z,81.60
2019-05-10T12:38:43.066Z,82.15
2019-05-10T12:41:09.741Z,84.11
2019-05-10T12:43:36.495Z,83.20
2019-05-10T12:46:03.372Z,85.12
2019-05-10T12:48:32.110Z,84.78
2019-05-10T12:51:04.956Z,82.90
2019-05-10T12:53:27.676Z,83.45
2019-05-10T12:55:54.388Z,80.78
2019-05-10T12:58:21.297Z,80.52
2019-05-10T13:00:52.715Z,81.78
2019-05-10T13:03:19.217Z,80.86
2019-05-10T13:05:52.528Z,84.89
2019-05-10T13:08:13.858Z,79.04
2019-05-10T13:10:43.183Z,76.07
2019-05-10T13:13:09.193Z,78.48
2019-05-10T13:15:35.935Z,79.50
2019-05-10T13:18:02.670Z,79.35
2019-05-10T13:20:35.907Z,79.21
2019-05-10T13:22:59.203Z,79.36
2019-05-10T13:25:26.019Z,81.22
2019-05-10T13:27:52.793Z,82.15
2019-05-10T13:30:27.046Z,82.61
2019-05-10T13:32:52.771Z,84.56
2019-05-10T13:35:18.591Z,84.80
2019-05-10T13:37:45.436Z,84.72
2019-05-10T13:40:12.483Z,84.58
2019-05-10T13:42:43.181Z,85.39
2019-05-10T13:48:45.082Z,86.30
2019-05-10T13:51:12.765Z,83.16
2019-05-10T13:53:39.545Z,85.18
2019-05-10T13:56:09.024Z,83.81
2019-05-10T13:58:38.000Z,85.99
2019-05-10T14:01:06.786Z,84.40
2019-05-10T14:03:44.147Z,84.27
2019-05-10T14:06:02.404Z,85.71
2019-05-10T14:08:29.160Z,82.68
2019-05-10T14:11:01.507Z,84.63
2019-05-10T14:13:24.904Z,80.06
2019-05-10T14:15:51.910Z,79.33
2019-05-10T14:29:36.865Z,82.53
2019-05-10T14:32:10.732Z,84.13
2019-05-10T14:34:49.253Z,84.45
2019-05-10T14:37:27.263Z,85.82
2019-05-10T14:40:27.504Z,83.36
2019-05-10T14:42:48.347Z,83.29
2019-05-10T14:46:25.646Z,82.14
2019-05-10T14:53:52.393Z,82.76
2019-05-10T14:56:19.540Z,83.00
2019-05-10T14:58:46.272Z,79.03
2019-05-10T15:01:13.039Z,81.63
2019-05-10T15:03:45.491Z,82.51
2019-05-10T15:06:08.545Z,78.57
2019-05-10T15:08:35.308Z,80.62
2019-05-10T15:11:02.239Z,80.17
2019-05-10T15:13:29.104Z,80.88
2019-05-10T15:15:55.891Z,82.32
2019-05-10T15:18:22.705Z,76.87
2019-05-10T15:20:49.506Z,79.21
2019-05-10T15:23:16.325Z,80.70
2019-05-10T15:25:56.655Z,79.98
2019-05-10T15:28:11.726Z,82.11
2019-05-10T15:30:39.368Z,80.91
2019-05-10T15:33:07.591Z,81.39
2019-05-10T15:35:34.355Z,78.79
2019-05-10T15:38:01.199Z,76.48
2019-05-10T15:40:27.954Z,78.18
2019-05-10T15:42:54.740Z,79.97
2019-05-10T15:45:21.584Z,80.03
2019-05-10T15:47:51.653Z,81.92
2019-05-10T15:50:17.210Z,81.71
2019-05-10T15:52:46.620Z,81.01
2019-05-10T15:55:16.424Z,77.94
2019-05-10T15:57:41.906Z,78.71
2019-05-10T16:00:09.056Z,78.60
2019-05-10T16:02:35.953Z,79.39
2019-05-10T16:05:23.287Z,80.59
2019-05-10T16:07:34.851Z,80.98
2019-05-10T16:10:01.719Z,81.86
2019-05-10T16:12:28.487Z,82.03
2019-05-10T16:14:55.245Z,81.73
2019-05-10T16:17:23.972Z,81.08
2019-05-10T16:19:58.889Z,81.80
2019-05-10T16:22:19.659Z,82.93
2019-05-10T16:24:46.496Z,82.98
2019-05-10T16:27:13.478Z,83.37
2019-05-10T16:29:41.410Z,84.12
2019-05-10T16:32:08.336Z,84.92
2019-05-10T16:34:35.195Z,85.23
2019-05-10T16:37:01.963Z,85.50
2019-05-10T16:39:29.038Z,85.02
2019-05-10T16:41:55.922Z,85.70
2019-05-10T16:44:22.907Z,85.36
2019-05-10T16:46:50.046Z,85.70
2019-05-10T16:49:17.320Z,84.69
2019-05-10T16:51:47.920Z,85.99
2019-05-10T16:54:13.647Z,86.77
2019-05-10T16:56:40.550Z,86.97
2019-05-10T16:59:07.333Z,87.08
2019-05-10T17:01:34.086Z,87.31
2019-05-10T17:04:01.803Z,87.29
2019-05-10T17:06:28.806Z,87.58
2019-05-10T17:08:55.613Z,87.25
2019-05-10T17:11:22.709Z,87.88
2019-05-10T17:13:49.465Z,85.76
2019-05-10T17:16:18.828Z,86.67
2019-05-10T17:18:49.859Z,87.11
2019-05-10T17:21:13.644Z,86.19
2019-05-10T17:23:46.212Z,86.60
2019-05-10T17:26:09.530Z,85.43
2019-05-10T17:28:37.413Z,85.97
2019-05-10T17:31:07.830Z,85.79
2019-05-10T17:33:36.850Z,85.42
2019-05-10T17:36:08.491Z,85.45
2019-05-10T17:38:31.775Z,84.66
2019-05-10T17:40:58.841Z,83.75
2019-05-10T17:43:26.148Z,83.66
2019-05-10T17:45:52.910Z,84.77
2019-05-10T17:48:19.667Z,84.79
2019-05-10T17:50:46.430Z,86.53
2019-05-10T17:53:13.426Z,85.55
2019-05-10T17:55:40.184Z,85.34
2019-05-10T17:58:06.980Z,86.74
2019-05-10T18:00:33.740Z,86.50
2019-05-10T18:03:00.550Z,87.10
2019-05-10T18:05:27.396Z,87.11
2019-05-10T18:07:54.193Z,86.47
2019-05-10T18:10:20.962Z,87.26
2019-05-10T18:12:47.895Z,86.60
2019-05-10T18:15:14.938Z,87.07
2019-05-10T18:17:42.045Z,86.20
2019-05-10T18:20:09.608Z,87.05
2019-05-10T18:22:43.292Z,87.56
2019-05-10T18:25:05.702Z,88.00
2019-05-10T18:27:32.534Z,87.99
2019-05-10T18:29:59.297Z,87.97
2019-05-10T18:32:29.170Z,88.33
2019-05-10T18:34:54.809Z,89.34
2019-05-10T18:37:23.261Z,89.13
2019-05-10T18:39:59.753Z,88.82
2019-05-10T18:42:27.930Z,89.43
2019-05-10T18:44:54.949Z,87.85
2019-05-10T18:47:21.690Z,88.48
2019-05-10T18:49:48.472Z,89.04
2019-05-10T18:52:15.430Z,89.56
2019-05-10T18:54:42.212Z,89.76
2019-05-10T18:57:12.288Z,90.33
2019-05-10T18:59:39.659Z,90.35
2019-05-10T19:02:11.741Z,90.36
2019-05-10T19:04:36.590Z,89.97
2019-05-10T19:07:09.857Z,89.28
2019-05-10T19:09:32.507Z,89.54
2019-05-10T19:11:59.644Z,89.85
2019-05-10T19:14:29.663Z,90.05
2019-05-10T19:16:55.435Z,89.77
2019-05-10T19:19:22.286Z,89.42
2019-05-10T19:21:49.073Z,89.58
2019-05-10T19:24:17.107Z,90.15
2019-05-10T19:26:43.945Z,90.03
2019-05-10T19:29:10.735Z,89.79
2019-05-10T19:31:40.120Z,89.31
2019-05-10T19:34:08.989Z,89.58
2019-05-10T19:36:35.359Z,90.04
2019-05-10T19:39:02.236Z,90.25
2019-05-10T19:41:30.276Z,89.86
2019-05-10T19:44:02.572Z,89.58
2019-05-10T19:46:30.103Z,89.31
2019-05-10T19:48:54.825Z,89.69
2019-05-10T19:51:22.824Z,89.85
2019-05-10T19:53:49.946Z,89.97
2019-05-10T19:56:17.027Z,90.25
2019-05-10T19:58:43.784Z,90.18
2019-05-10T20:01:10.654Z,90.02
2019-05-10T20:03:37.428Z,89.95
2019-05-10T20:06:04.317Z,90.01
2019-05-10T20:08:31.190Z,89.74
2019-05-10T20:10:58.023Z,89.87
2019-05-10T20:13:25.694Z,89.75
2019-05-10T20:15:52.481Z,89.89
2019-05-10T20:18:19.367Z,90.17
2019-05-10T20:20:46.190Z,89.91
2019-05-10T20:23:13.146Z,89.80
2019-05-10T20:25:39.924Z,89.18
2019-05-10T20:28:06.789Z,89.42
2019-05-10T20:30:33.656Z,89.07
2019-05-10T20:33:00.405Z,89.25
2019-05-10T20:35:27.232Z,88.63
2019-05-10T20:38:01.975Z,89.03
2019-05-10T20:40:22.673Z,89.37
2019-05-10T20:42:49.427Z,89.80
2019-05-10T20:45:16.379Z,89.58
2019-05-10T20:47:43.130Z,89.68
2019-05-10T20:50:11.047Z,89.70
2019-05-10T20:52:37.806Z,89.33
2019-05-10T20:55:05.026Z,89.45
2019-05-10T20:57:32.994Z,89.40
2019-05-10T20:59:59.796Z,89.16
2019-05-10T21:02:26.567Z,89.11
2019-05-10T21:04:53.507Z,88.63
2019-05-10T21:07:20.310Z,88.59
2019-05-10T21:09:47.088Z,89.31
2019-05-10T21:12:14.919Z,89.20
2019-05-10T21:14:41.776Z,89.64
2019-05-10T21:17:08.782Z,89.39
2019-05-10T21:19:35.602Z,89.74
2019-05-10T21:22:02.469Z,90.25
2019-05-10T21:24:29.249Z,89.82
2019-05-10T21:26:56.074Z,90.12
2019-05-10T21:29:22.895Z,90.09
2019-05-10T21:31:49.634Z,90.46
2019-05-10T21:34:16.465Z,90.58
2019-05-10T21:36:43.249Z,90.74
2019-05-10T21:39:10.045Z,90.98
2019-05-10T21:41:36.835Z,90.77
2019-05-10T21:44:03.861Z,90.77
2019-05-10T21:46:30.591Z,90.40
2019-05-10T21:48:57.383Z,90.49
2019-05-10T21:51:24.164Z,90.63
2019-05-10T21:53:51.005Z,91.01
2019-05-10T21:56:17.786Z,91.26
2019-05-10T21:58:44.563Z,91.24
2019-05-10T22:01:11.330Z,90.92
2019-05-10T22:03:38.319Z,90.98
2019-05-10T22:06:05.111Z,90.85
2019-05-10T22:08:48.027Z,91.04
2019-05-10T22:11:01.152Z,91.03
2019-05-10T22:13:28.147Z,90.94
2019-05-10T22:15:54.916Z,91.17
2019-05-10T22:18:21.681Z,90.95
2019-05-10T22:20:48.427Z,90.91
2019-05-10T22:23:15.269Z,90.65
2019-05-10T22:25:42.035Z,91.19
2019-05-10T22:28:08.785Z,91.29
2019-05-10T22:30:35.582Z,91.41
2019-05-10T22:33:02.571Z,91.41
2019-05-10T22:35:29.335Z,91.15
2019-05-10T22:37:56.106Z,91.16
2019-05-10T22:40:22.877Z,90.87
2019-05-10T22:42:49.709Z,91.04
2019-05-10T22:45:16.468Z,91.09
2019-05-10T22:47:43.274Z,91.09
2019-05-10T22:50:10.328Z,91.22
2019-05-10T22:52:37.152Z,91.12
2019-05-10T22:55:04.709Z,90.97
2019-05-10T22:57:31.653Z,91.07
2019-05-10T22:59:58.412Z,91.20
2019-05-10T23:02:25.405Z,91.24
2019-05-10T23:04:52.306Z,91.29
2019-05-10T23:07:19.169Z,91.20
2019-05-10T23:09:45.930Z,91.41
2019-05-10T23:12:12.768Z,91.36
2019-05-10T23:14:39.536Z,91.31
2019-05-10T23:17:06.291Z,91.32
2019-05-10T23:19:33.077Z,91.50
2019-05-10T23:21:59.921Z,91.78
2019-05-10T23:24:37.190Z,92.05
2019-05-10T23:27:06.848Z,92.27
2019-05-10T23:29:34.851Z,92.31
2019-05-10T23:32:01.712Z,92.12
2019-05-10T23:34:28.689Z,91.93
2019-05-10T23:36:55.619Z,92.06
2019-05-10T23:39:38.374Z,92.17
2019-05-10T23:41:52.564Z,92.28
2019-05-10T23:44:19.364Z,91.95
2019-05-10T23:46:46.498Z,92.11
2019-05-10T23:49:13.286Z,91.91
2019-05-10T23:51:40.081Z,91.79
2019-05-10T23:54:06.869Z,91.39
2019-05-10T23:56:33.770Z,90.80
2019-05-10T23:59:00.640Z,90.12
